Time;durP1;ratioP1;P1;durP2;ratioP2;P2;SDS_P1;SDS_P2;PMS_P1;PMS_P2;Temp;Humidity;BMP_temperature;BMP_pressure;BME280_temperature;BME280_humidity;BME280_pressure;Samples;Min_cycle;Max_cycle;Signal;HPM_P1;HPM_P2
2021/03/09 00:01:38;;;;;;;12.97;8.20;;;;;;;-0.97;100.00;98406.34;5071975;28;20298;-65
2021/03/09 00:04:04;;;;;;;11.50;7.83;;;;;;;-1.03;100.00;98414.25;5071950;28;20204;-65
2021/03/09 00:06:30;;;;;;;14.17;8.33;;;;;;;-1.07;100.00;98404.81;5071600;28;20203;-65
2021/03/09 00:08:56;;;;;;;11.60;8.07;;;;;;;-1.09;100.00;98414.38;5072390;28;20219;-65
2021/03/09 00:11:22;;;;;;;13.10;9.07;;;;;;;-1.09;100.00;98411.78;5071595;28;20224;-64
2021/03/09 00:13:49;;;;;;;11.77;8.30;;;;;;;-1.06;100.00;98404.78;5070759;28;20654;-65
2021/03/09 00:16:15;;;;;;;12.40;8.70;;;;;;;-1.12;100.00;98406.66;5071924;28;20204;-64
2021/03/09 00:18:41;;;;;;;13.53;9.17;;;;;;;-1.19;100.00;98405.03;5071708;28;20677;-64
2021/03/09 00:21:07;;;;;;;12.17;7.93;;;;;;;-1.19;100.00;98403.31;5072086;28;20243;-66
2021/03/09 00:23:33;;;;;;;15.03;9.07;;;;;;;-1.18;100.00;98399.00;5072157;28;20211;-66
2021/03/09 00:25:59;;;;;;;14.13;8.70;;;;;;;-1.21;100.00;98399.03;5071229;28;20215;-69
2021/03/09 00:28:25;;;;;;;14.03;8.30;;;;;;;-1.32;100.00;98403.56;5071114;28;20218;-65
2021/03/09 00:30:52;;;;;;;12.23;8.53;;;;;;;-1.38;100.00;98401.09;5074393;28;20249;-66
2021/03/09 00:33:17;;;;;;;11.73;8.30;;;;;;;-1.47;100.00;98396.91;5079083;28;20710;-66
2021/03/09 00:35:43;;;;;;;11.73;8.00;;;;;;;-1.46;100.00;98397.78;5092096;28;20302;-66
2021/03/09 00:38:09;;;;;;;13.93;9.17;;;;;;;-1.52;100.00;98390.97;5091989;28;20603;-66
2021/03/09 00:40:35;;;;;;;12.67;8.73;;;;;;;-1.53;100.00;98394.44;5075469;28;20317;-66
2021/03/09 00:43:01;;;;;;;11.73;8.50;;;;;;;-1.44;100.00;98390.81;5071684;28;20208;-64
2021/03/09 00:45:27;;;;;;;11.83;8.30;;;;;;;-1.46;100.00;98392.59;5072262;28;20290;-68
2021/03/09 00:47:54;;;;;;;16.27;9.90;;;;;;;-1.48;100.00;98389.19;5071153;28;20224;-63
2021/03/09 00:50:20;;;;;;;14.83;9.53;;;;;;;-1.50;100.00;98390.94;5072098;28;20222;-65
2021/03/09 00:52:46;;;;;;;12.23;7.80;;;;;;;-1.61;100.00;98393.72;5072100;28;20218;-65
2021/03/09 00:55:13;;;;;;;14.43;9.53;;;;;;;-1.67;100.00;98395.59;5071211;28;20211;-64
2021/03/09 00:57:39;;;;;;;14.07;8.73;;;;;;;-1.70;100.00;98390.44;5071492;28;20207;-64
2021/03/09 01:00:07;;;;;;;15.23;9.43;;;;;;;-1.69;100.00;98387.81;5072042;28;20313;-67
2021/03/09 01:02:33;;;;;;;18.13;9.20;;;;;;;-1.70;100.00;98393.03;5071000;28;20208;-64
2021/03/09 01:04:59;;;;;;;16.97;9.07;;;;;;;-1.71;100.00;98386.97;5072028;28;20203;-65
2021/03/09 01:07:25;;;;;;;13.80;9.43;;;;;;;-1.71;100.00;98383.53;5069607;28;20688;-65
2021/03/09 01:09:51;;;;;;;14.43;9.33;;;;;;;-1.79;100.00;98382.84;5071378;28;20258;-65
2021/03/09 01:12:17;;;;;;;16.13;9.70;;;;;;;-1.82;100.00;98388.06;5071668;28;20705;-68
2021/03/09 01:14:43;;;;;;;17.00;10.17;;;;;;;-1.85;100.00;98388.94;5071724;28;20418;-66
2021/03/09 01:17:09;;;;;;;16.27;10.17;;;;;;;-1.80;100.00;98384.56;5070642;28;20548;-64
2021/03/09 01:19:35;;;;;;;16.67;10.17;;;;;;;-1.82;100.00;98383.72;5071758;28;20285;-64
2021/03/09 01:22:02;;;;;;;17.37;10.57;;;;;;;-1.79;100.00;98382.84;5071894;28;20210;-64
2021/03/09 01:24:28;;;;;;;17.10;10.00;;;;;;;-1.79;100.00;98377.66;5071175;28;20218;-64
2021/03/09 01:26:54;;;;;;;13.90;10.27;;;;;;;-1.79;100.00;98380.25;5071277;28;20549;-64
2021/03/09 01:29:21;;;;;;;14.93;10.17;;;;;;;-1.76;100.00;98375.00;5071673;28;20643;-64
2021/03/09 01:31:46;;;;;;;16.97;10.33;;;;;;;-1.73;100.00;98372.38;5071515;28;20250;-63
2021/03/09 01:34:12;;;;;;;18.43;10.87;;;;;;;-1.72;100.00;98372.31;5081445;28;20597;-67
2021/03/09 01:36:38;;;;;;;14.73;9.93;;;;;;;-1.69;100.00;98368.81;5091126;28;20748;-68
2021/03/09 01:39:05;;;;;;;17.97;10.30;;;;;;;-1.61;100.00;98356.59;5090297;28;20317;-65
2021/03/09 01:41:31;;;;;;;17.47;10.90;;;;;;;-1.61;100.00;98370.41;5075314;28;20207;-66
2021/03/09 01:43:58;;;;;;;15.97;10.10;;;;;;;-1.57;100.00;98368.59;5075049;28;20233;-65
2021/03/09 01:46:24;;;;;;;12.57;9.17;;;;;;;-1.62;100.00;98353.16;5073881;28;20211;-65
2021/03/09 01:48:50;;;;;;;14.23;9.83;;;;;;;-1.64;100.00;98359.25;5074876;28;20211;-65
2021/03/09 01:51:18;;;;;;;14.70;9.93;;;;;;;-1.65;100.00;98347.16;5075223;28;20257;-65
2021/03/09 01:53:44;;;;;;;17.60;9.40;;;;;;;-1.66;100.00;98342.88;5075045;28;20204;-65
2021/03/09 01:56:11;;;;;;;15.27;9.33;;;;;;;-1.64;100.00;98346.28;5075070;28;20215;-65
2021/03/09 01:58:40;;;;;;;16.77;10.40;;;;;;;-1.62;100.00;98336.72;5073244;28;20230;-65
2021/03/09 02:01:06;;;;;;;16.47;9.67;;;;;;;-1.62;100.00;98329.81;5073788;28;20231;-64
2021/03/09 02:03:33;;;;;;;15.47;10.80;;;;;;;-1.64;100.00;98331.59;5074535;28;20277;-64
2021/03/09 02:05:59;;;;;;;15.67;10.47;;;;;;;-1.62;100.00;98328.97;5074604;28;20204;-64
2021/03/09 02:08:25;;;;;;;16.53;10.00;;;;;;;-1.63;100.00;98332.44;5073234;28;20285;-65
2021/03/09 02:10:51;;;;;;;16.90;10.83;;;;;;;-1.61;100.00;98333.28;5074737;28;20272;-65
2021/03/09 02:13:36;;;;;;;17.13;10.43;;;;;;;-1.61;100.00;98318.56;5075020;28;20207;-65
2021/03/09 02:16:10;;;;;;;20.87;11.50;;;;;;;-1.67;100.00;98323.88;5073462;28;20606;-64
2021/03/09 02:18:43;;;;;;;18.20;10.80;;;;;;;-1.61;100.00;98315.16;5074646;28;20258;-65
2021/03/09 02:21:38;;;;;;;15.57;10.63;;;;;;;-1.59;100.00;98319.38;5074497;28;20238;-64
2021/03/09 02:24:27;;;;;;;15.47;9.93;;;;;;;-1.63;100.00;98314.31;5073895;28;20208;-66
2021/03/09 02:27:14;;;;;;;17.23;11.07;;;;;;;-1.67;100.00;98320.44;5073378;28;20584;-65
2021/03/09 02:30:19;;;;;;;16.27;10.47;;;;;;;-1.66;100.00;98312.63;5073969;28;20218;-65
2021/03/09 02:33:00;;;;;;;17.67;11.63;;;;;;;-1.65;100.00;98305.72;5057284;28;20664;-65
2021/03/09 02:35:28;;;;;;;18.00;12.10;;;;;;;-1.69;100.00;98306.63;5084178;28;20215;-64
2021/03/09 02:37:58;;;;;;;18.63;12.23;;;;;;;-1.69;100.00;98312.69;5093338;28;20210;-65
2021/03/09 02:40:26;;;;;;;18.13;11.93;;;;;;;-1.70;100.00;98310.13;5081419;28;20250;-65
2021/03/09 02:42:56;;;;;;;15.33;11.80;;;;;;;-1.69;100.00;98306.63;5074123;28;20211;-65
2021/03/09 02:45:23;;;;;;;17.20;11.47;;;;;;;-1.76;100.00;98305.06;5073192;28;20584;-65
2021/03/09 02:47:52;;;;;;;17.90;12.30;;;;;;;-1.77;100.00;98308.53;5073726;28;20560;-65
2021/03/09 02:50:22;;;;;;;17.30;12.53;;;;;;;-1.79;100.00;98310.31;5073181;28;20207;-66
2021/03/09 02:52:51;;;;;;;15.73;11.60;;;;;;;-1.83;100.00;98304.28;5071317;28;20207;-66
2021/03/09 02:55:19;;;;;;;17.70;11.80;;;;;;;-1.73;100.00;98305.00;5074038;28;20212;-66
2021/03/09 02:57:47;;;;;;;17.93;11.63;;;;;;;-1.77;100.00;98303.34;5073148;28;20211;-66
2021/03/09 03:00:15;;;;;;;17.83;11.60;;;;;;;-1.78;100.00;98297.28;5072795;28;20273;-66
2021/03/09 03:02:42;;;;;;;18.33;11.57;;;;;;;-1.81;100.00;98294.78;5073487;28;20211;-68
2021/03/09 03:05:11;;;;;;;18.27;12.13;;;;;;;-1.88;100.00;98300.97;5073587;28;20208;-64
2021/03/09 03:07:39;;;;;;;17.10;11.67;;;;;;;-1.90;100.00;98296.69;5072291;28;20213;-64
2021/03/09 03:10:06;;;;;;;17.33;11.50;;;;;;;-1.88;100.00;98300.09;5073207;28;20215;-64
2021/03/09 03:12:33;;;;;;;22.07;11.90;;;;;;;-1.89;100.00;98288.03;5073263;28;20219;-64
2021/03/09 03:15:01;;;;;;;18.53;12.27;;;;;;;-1.88;100.00;98289.72;5072675;28;20685;-64
2021/03/09 03:17:30;;;;;;;18.57;11.40;;;;;;;-1.87;100.00;98294.03;5071133;28;20218;-64
2021/03/09 03:19:58;;;;;;;16.17;10.67;;;;;;;-1.82;100.00;98290.50;5073532;28;20235;-65
2021/03/09 03:22:27;;;;;;;16.77;10.73;;;;;;;-1.73;100.00;98297.25;5072317;28;20738;-65
2021/03/09 03:24:54;;;;;;;22.33;12.37;;;;;;;-1.72;100.00;98291.16;5073356;28;20218;-65
2021/03/09 03:27:20;;;;;;;17.10;11.33;;;;;;;-1.73;100.00;98294.66;5072915;28;20218;-63
2021/03/09 03:29:46;;;;;;;16.70;10.63;;;;;;;-1.80;100.00;98293.03;5072697;28;20211;-63
2021/03/09 03:32:13;;;;;;;18.23;11.33;;;;;;;-1.80;100.00;98287.84;5073315;28;20228;-63
2021/03/09 03:34:39;;;;;;;18.97;10.97;;;;;;;-1.76;100.00;98295.56;5077583;28;20199;-64
2021/03/09 03:37:06;;;;;;;17.47;10.73;;;;;;;-1.76;100.00;98292.09;5086754;28;20588;-63
2021/03/09 03:39:33;;;;;;;14.47;10.50;;;;;;;-1.84;100.00;98283.63;5087629;28;20289;-64
2021/03/09 03:41:59;;;;;;;17.00;10.70;;;;;;;-1.84;100.00;98291.41;5072746;28;20297;-64
2021/03/09 03:44:25;;;;;;;19.27;11.73;;;;;;;-1.87;100.00;98291.44;5070681;28;20273;-64
2021/03/09 03:46:51;;;;;;;17.93;12.00;;;;;;;-1.91;100.00;98289.78;5072347;28;20306;-65
2021/03/09 03:49:17;;;;;;;17.33;11.73;;;;;;;-1.93;100.00;98287.22;5072707;28;20211;-66
2021/03/09 03:51:50;;;;;;;18.07;11.80;;;;;;;-1.91;100.00;98287.22;5072304;28;20211;-66
2021/03/09 03:54:26;;;;;;;19.97;12.03;;;;;;;-1.91;100.00;98294.97;5072662;28;20215;-66
2021/03/09 03:56:57;;;;;;;19.20;12.60;;;;;;;-1.95;100.00;98278.63;5072146;28;20207;-64
2021/03/09 03:59:26;;;;;;;19.67;12.50;;;;;;;-1.92;100.00;98293.25;5071841;28;20231;-64
2021/03/09 04:01:54;;;;;;;20.20;12.20;;;;;;;-1.92;100.00;98288.94;5072608;28;20215;-64
2021/03/09 04:04:23;;;;;;;17.27;11.57;;;;;;;-1.88;100.00;98281.97;5072566;28;20211;-64
2021/03/09 04:06:53;;;;;;;17.27;11.27;;;;;;;-1.84;100.00;98281.88;5071103;28;20204;-64
2021/03/09 04:09:20;;;;;;;16.70;11.33;;;;;;;-1.87;100.00;98281.06;5072620;28;20207;-64
2021/03/09 04:11:47;;;;;;;20.30;11.50;;;;;;;-1.91;100.00;98284.63;5071182;28;20215;-64
2021/03/09 04:14:15;;;;;;;19.27;11.40;;;;;;;-1.93;100.00;98278.59;5072011;28;20261;-64
2021/03/09 04:16:43;;;;;;;20.57;11.13;;;;;;;-1.96;100.00;98265.72;5072123;28;20207;-64
2021/03/09 04:19:10;;;;;;;16.47;11.17;;;;;;;-2.01;100.00;98273.56;5072225;28;20548;-64
2021/03/09 04:21:38;;;;;;;16.03;11.03;;;;;;;-2.00;100.00;98287.34;5071618;28;20208;-64
2021/03/09 04:24:06;;;;;;;17.70;11.50;;;;;;;-2.01;100.00;98270.13;5072222;28;20211;-64
2021/03/09 04:26:33;;;;;;;17.37;11.23;;;;;;;-1.98;100.00;98267.44;5071945;28;20207;-64
2021/03/09 04:29:00;;;;;;;18.00;10.73;;;;;;;-2.08;100.00;98271.09;5071324;28;20285;-64
2021/03/09 04:31:28;;;;;;;16.17;10.97;;;;;;;-2.05;100.00;98263.28;5072090;28;20210;-64
2021/03/09 04:33:54;;;;;;;15.17;10.50;;;;;;;-2.01;100.00;98265.81;5072414;28;20211;-64
2021/03/09 04:36:22;;;;;;;19.37;11.60;;;;;;;-2.01;100.00;98275.28;5076685;28;20203;-63
2021/03/09 04:38:48;;;;;;;17.93;11.07;;;;;;;-2.02;100.00;98271.84;5090150;28;20215;-63
2021/03/09 04:41:16;;;;;;;16.47;10.60;;;;;;;-2.05;100.00;98287.44;5072601;28;20234;-63
2021/03/09 04:43:42;;;;;;;16.50;11.30;;;;;;;-2.07;100.00;98278.84;5071306;28;20213;-63
2021/03/09 04:46:09;;;;;;;19.10;11.13;;;;;;;-2.02;100.00;98283.94;5072234;28;20211;-63
2021/03/09 04:48:38;;;;;;;15.07;9.57;;;;;;;-2.03;100.00;98275.31;5071499;28;20219;-63
2021/03/09 04:51:07;;;;;;;20.13;9.97;;;;;;;-2.14;100.00;98281.56;5071399;28;20298;-63
2021/03/09 04:53:35;;;;;;;18.00;9.90;;;;;;;-2.16;100.00;98284.19;5072200;28;20276;-63
2021/03/09 04:56:02;;;;;;;17.43;10.60;;;;;;;-2.18;100.00;98274.72;5071811;28;20576;-63
2021/03/09 04:58:28;;;;;;;13.20;9.37;;;;;;;-2.21;100.00;98279.97;5070646;28;20676;-66
2021/03/09 05:00:55;;;;;;;19.00;11.03;;;;;;;-2.28;100.00;98275.78;5072062;28;20239;-64
2021/03/09 05:03:23;;;;;;;14.27;9.43;;;;;;;-2.29;100.00;98276.63;5070141;28;20211;-63
2021/03/09 05:05:50;;;;;;;13.13;9.37;;;;;;;-2.22;100.00;98278.22;5071102;28;20208;-63
2021/03/09 05:08:16;;;;;;;18.83;11.40;;;;;;;-2.15;100.00;98279.88;5071420;28;20497;-66
2021/03/09 05:10:42;;;;;;;14.50;9.23;;;;;;;-2.23;100.00;98279.97;5071966;28;20214;-65
2021/03/09 05:13:08;;;;;;;17.07;10.60;;;;;;;-2.22;100.00;98275.66;5070956;28;20225;-64
2021/03/09 05:15:34;;;;;;;15.97;10.40;;;;;;;-2.25;100.00;98284.34;5075509;28;20285;-64
2021/03/09 05:18:00;;;;;;;15.43;11.30;;;;;;;-2.26;100.00;98280.03;5076352;28;20211;-65
2021/03/09 05:20:27;;;;;;;20.03;11.70;;;;;;;-2.24;100.00;98280.88;5075167;28;20249;-65
2021/03/09 05:22:53;;;;;;;16.50;11.40;;;;;;;-2.25;100.00;98283.47;5075795;28;20207;-65
2021/03/09 05:25:20;;;;;;;16.90;10.07;;;;;;;-2.15;100.00;98290.22;5075243;28;20215;-64
2021/03/09 05:27:47;;;;;;;16.80;9.80;;;;;;;-2.18;100.00;98292.84;5074575;28;20289;-64
2021/03/09 05:30:15;;;;;;;13.77;9.00;;;;;;;-2.14;100.00;98286.75;5073957;28;20556;-66
2021/03/09 05:32:41;;;;;;;17.77;9.57;;;;;;;-2.20;100.00;98285.09;5075700;28;20207;-65
2021/03/09 05:35:08;;;;;;;11.80;8.73;;;;;;;-2.21;100.00;98287.72;5074849;28;20218;-66
2021/03/09 05:37:34;;;;;;;13.17;9.43;;;;;;;-2.11;100.00;98289.25;5081730;28;20238;-65
2021/03/09 05:40:01;;;;;;;17.27;10.07;;;;;;;-2.17;100.00;98287.66;5086232;28;20231;-66
2021/03/09 05:42:27;;;;;;;14.67;10.07;;;;;;;-2.07;100.00;98294.38;5074586;28;20212;-64
2021/03/09 05:44:53;;;;;;;13.67;10.13;;;;;;;-2.13;100.00;98289.31;5075353;28;20211;-64
2021/03/09 05:47:21;;;;;;;17.10;10.47;;;;;;;-2.14;100.00;98286.75;5075116;28;20212;-65
2021/03/09 05:49:47;;;;;;;14.27;9.40;;;;;;;-2.15;100.00;98290.22;5074140;28;20740;-64
2021/03/09 05:52:16;;;;;;;19.00;10.20;;;;;;;-2.13;100.00;98293.63;5075407;28;20261;-65
2021/03/09 05:54:43;;;;;;;15.87;10.20;;;;;;;-2.09;100.00;98290.13;5075067;28;20211;-66
2021/03/09 05:57:09;;;;;;;20.00;10.40;;;;;;;-2.08;100.00;98292.66;5072573;28;20735;-66
2021/03/09 05:59:36;;;;;;;16.73;10.67;;;;;;;-2.10;100.00;98293.56;5074895;28;20235;-66
2021/03/09 06:02:03;;;;;;;18.87;10.53;;;;;;;-2.05;100.00;98299.53;5074778;28;20211;-66
2021/03/09 06:04:32;;;;;;;18.13;11.47;;;;;;;-2.08;100.00;98297.00;5073890;28;20579;-66
2021/03/09 06:06:58;;;;;;;18.00;10.10;;;;;;;-2.00;100.00;98301.16;5074492;28;20212;-66
2021/03/09 06:09:41;;;;;;;20.37;11.77;;;;;;;-1.96;100.00;98296.78;5074225;28;20251;-66
2021/03/09 06:12:16;;;;;;;22.57;10.97;;;;;;;-1.86;100.00;98298.31;5073831;28;20294;-66
2021/03/09 06:14:44;;;;;;;16.73;9.67;;;;;;;-1.76;100.00;98294.69;5074376;28;20777;-68
2021/03/09 06:17:14;;;;;;;15.97;9.93;;;;;;;-1.78;100.00;98299.06;5074513;28;20215;-68
2021/03/09 06:19:48;;;;;;;15.20;9.83;;;;;;;-1.75;100.00;98301.56;5073439;28;20227;-68
2021/03/09 06:22:15;;;;;;;17.33;10.83;;;;;;;-1.68;100.00;98301.44;5072904;28;20218;-69
2021/03/09 06:24:42;;;;;;;16.77;10.00;;;;;;;-1.63;100.00;98298.75;5074092;28;20669;-68
2021/03/09 06:27:30;;;;;;;16.77;10.57;;;;;;;-1.58;100.00;98305.59;5072468;28;20220;-68
2021/03/09 06:29:57;;;;;;;16.17;10.63;;;;;;;-1.55;100.00;98296.88;5074223;28;20261;-69
2021/03/09 06:32:24;;;;;;;17.60;11.17;;;;;;;-1.54;100.00;98301.19;5074463;28;20285;-69
2021/03/09 06:34:51;;;;;;;17.73;11.40;;;;;;;-1.45;100.00;98306.19;5073446;28;20219;-69
2021/03/09 06:37:18;;;;;;;16.07;11.00;;;;;;;-1.36;100.00;98300.84;5076245;28;20244;-69
2021/03/09 06:39:56;;;;;;;15.67;10.27;;;;;;;-1.41;100.00;98302.66;5080360;28;20279;-66
2021/03/09 06:42:25;;;;;;;18.30;10.93;;;;;;;-1.42;100.00;98296.59;5073390;28;20211;-67
2021/03/09 06:44:55;;;;;;;15.00;10.13;;;;;;;-1.36;100.00;98298.25;5073841;28;20203;-65
2021/03/09 06:47:42;;;;;;;15.33;10.60;;;;;;;-1.33;100.00;98295.56;5073773;28;20215;-65
2021/03/09 06:50:12;;;;;;;14.90;9.73;;;;;;;-1.24;100.00;98298.00;5071912;28;20203;-66
2021/03/09 06:52:39;;;;;;;19.57;10.97;;;;;;;-1.21;100.00;98306.56;5074117;28;20218;-66
2021/03/09 06:55:07;;;;;;;16.03;10.33;;;;;;;-1.13;100.00;98301.19;5074083;28;20215;-66
2021/03/09 06:57:33;;;;;;;17.60;11.07;;;;;;;-1.03;100.00;98300.13;5072635;28;20207;-66
2021/03/09 07:00:00;;;;;;;16.60;10.67;;;;;;;-0.88;100.00;98299.78;5073634;28;20580;-68
2021/03/09 07:02:28;;;;;;;18.00;10.80;;;;;;;-0.78;100.00;98302.19;5073941;28;20212;-68
2021/03/09 07:05:01;;;;;;;16.63;10.50;;;;;;;-0.70;100.00;98305.44;5072962;28;20206;-68
2021/03/09 07:07:29;;;;;;;15.93;10.23;;;;;;;-0.60;100.00;98304.38;5073052;28;20215;-67
2021/03/09 07:09:58;;;;;;;16.60;11.13;;;;;;;-0.51;100.00;98311.09;5073412;28;20220;-68
2021/03/09 07:12:25;;;;;;;15.67;10.07;;;;;;;-0.37;100.00;98311.63;5072780;28;20216;-68
2021/03/09 07:14:52;;;;;;;16.53;10.60;;;;;;;-0.32;100.00;98308.00;5071905;28;20232;-68
2021/03/09 07:17:22;;;;;;;15.83;10.37;;;;;;;-0.16;100.00;98319.75;5073565;28;20216;-67
2021/03/09 07:19:49;;;;;;;15.50;10.10;;;;;;;-0.06;100.00;98310.88;5072599;28;20227;-68
2021/03/09 07:22:17;;;;;;;18.40;10.73;;;;;;;0.06;100.00;98319.19;5073063;28;20212;-67
2021/03/09 07:24:52;;;;;;;14.50;9.77;;;;;;;0.19;100.00;98311.94;5073433;28;20204;-66
2021/03/09 07:27:21;;;;;;;16.90;10.70;;;;;;;0.27;99.61;98323.00;5072143;28;20218;-66
2021/03/09 07:29:51;;;;;;;14.17;9.70;;;;;;;0.40;98.06;98317.44;5073218;28;20212;-67
2021/03/09 07:32:22;;;;;;;14.83;9.87;;;;;;;0.53;96.97;98323.16;5072905;28;20213;-66
2021/03/09 07:34:49;;;;;;;13.10;9.87;;;;;;;0.58;97.12;98316.97;5072237;28;20214;-67
2021/03/09 07:37:17;;;;;;;16.33;10.43;;;;;;;0.70;96.80;98316.63;5072661;28;20208;-66
2021/03/09 07:39:43;;;;;;;17.20;10.60;;;;;;;0.80;96.29;98320.66;5079147;28;20300;-67
2021/03/09 07:42:10;;;;;;;13.93;10.47;;;;;;;0.92;95.52;98320.31;5070662;28;20601;-67
2021/03/09 07:44:37;;;;;;;20.00;11.50;;;;;;;1.05;96.07;98323.44;5073002;28;20213;-67
2021/03/09 07:47:05;;;;;;;17.13;10.10;;;;;;;1.23;94.92;98318.53;5072881;28;20211;-66
2021/03/09 07:49:32;;;;;;;17.03;11.13;;;;;;;1.36;94.67;98319.88;5071942;28;20207;-66
2021/03/09 07:52:25;;;;;;;14.13;10.30;;;;;;;1.53;93.40;98324.59;5072907;28;20242;-66
2021/03/09 07:55:19;;;;;;;15.00;10.30;;;;;;;1.69;92.65;98318.84;5054126;28;20659;-66
2021/03/09 07:57:45;;;;;;;17.43;10.10;;;;;;;1.84;92.14;98317.53;5054224;28;20625;-67
2021/03/09 08:00:13;;;;;;;17.03;11.33;;;;;;;1.95;92.27;98320.63;5072666;28;20241;-67
2021/03/09 08:02:40;;;;;;;14.73;10.20;;;;;;;2.05;91.84;98328.13;5072389;28;20295;-67
2021/03/09 08:05:08;;;;;;;16.33;10.57;;;;;;;2.10;91.78;98326.22;5072250;28;20211;-68
2021/03/09 08:08:05;;;;;;;14.73;9.93;;;;;;;2.12;91.72;98323.53;5070627;28;20209;-67
2021/03/09 08:10:42;;;;;;;15.23;9.77;;;;;;;2.22;91.64;98324.94;5068970;28;20660;-67
2021/03/09 08:13:23;;;;;;;15.00;9.77;;;;;;;2.31;91.17;98320.28;5072206;28;20225;-66
2021/03/09 08:15:50;;;;;;;16.43;10.40;;;;;;;2.42;89.43;98328.59;5073070;28;20228;-67
2021/03/09 08:18:42;;;;;;;14.83;10.30;;;;;;;2.42;89.71;98319.91;5073287;28;20263;-67
2021/03/09 08:21:09;;;;;;;13.53;10.07;;;;;;;2.54;89.37;98322.97;5073065;28;20233;-67
2021/03/09 08:23:55;;;;;;;17.07;10.97;;;;;;;2.68;88.89;98315.50;5073109;28;20225;-67
2021/03/09 08:26:47;;;;;;;17.30;10.47;;;;;;;2.77;88.55;98315.19;5073045;28;20259;-67
2021/03/09 08:29:34;;;;;;;18.30;10.60;;;;;;;2.91;87.99;98327.72;5073286;28;20209;-66
2021/03/09 08:32:25;;;;;;;15.60;10.40;;;;;;;3.05;87.93;98315.88;5064193;28;20211;-67
2021/03/09 08:34:52;;;;;;;14.90;10.40;;;;;;;3.22;87.55;98320.47;5071371;28;20209;-67
2021/03/09 08:37:32;;;;;;;15.30;10.73;;;;;;;3.39;86.43;98321.56;5073111;28;20215;-66
2021/03/09 08:40:05;;;;;;;13.83;9.90;;;;;;;3.54;85.33;98318.34;5072884;28;20298;-66
2021/03/09 08:43:05;;;;;;;15.70;10.50;;;;;;;3.66;84.75;98309.22;5072871;28;20217;-65
2021/03/09 08:45:35;;;;;;;15.03;10.77;;;;;;;3.86;84.19;98317.94;5071729;28;20212;-66
2021/03/09 08:48:01;;;;;;;14.60;10.30;;;;;;;3.99;83.47;98311.34;5070266;28;20210;-66
2021/03/09 08:50:40;;;;;;;14.73;10.60;;;;;;;4.16;82.88;98315.88;5071632;28;20253;-66
2021/03/09 08:53:31;;;;;;;17.40;11.82;;;;;;;4.31;82.22;98315.25;5072240;28;20439;-66
2021/03/09 08:55:57;;;;;;;15.70;10.43;;;;;;;4.42;81.85;98313.91;5072802;28;20223;-65
2021/03/09 08:58:24;;;;;;;16.17;10.67;;;;;;;4.54;81.57;98302.03;5072493;28;20679;-66
2021/03/09 09:00:50;;;;;;;15.73;11.73;;;;;;;4.67;81.06;98308.44;5071140;28;20235;-66
2021/03/09 09:03:30;;;;;;;16.90;11.57;;;;;;;4.80;80.34;98310.47;5072805;28;20205;-66
2021/03/09 09:05:56;;;;;;;16.97;11.80;;;;;;;4.91;79.25;98305.63;5072722;28;20212;-66
2021/03/09 09:08:23;;;;;;;15.77;11.87;;;;;;;5.04;78.66;98303.31;5072661;28;20301;-66
2021/03/09 09:10:49;;;;;;;17.30;11.23;;;;;;;5.16;78.41;98300.13;5072294;28;20214;-66
2021/03/09 09:13:15;;;;;;;19.80;12.50;;;;;;;5.27;77.44;98303.13;5072404;28;20576;-66
2021/03/09 09:15:41;;;;;;;16.97;11.90;;;;;;;5.34;77.58;98302.78;5072455;28;20238;-66
2021/03/09 09:18:09;;;;;;;19.43;13.07;;;;;;;5.45;76.71;98300.50;5072562;28;20217;-66
2021/03/09 09:20:37;;;;;;;18.27;13.33;;;;;;;5.50;76.17;98293.28;5072475;28;20632;-67
2021/03/09 09:23:08;;;;;;;19.57;13.13;;;;;;;5.56;73.94;98300.03;5072325;28;20215;-66
2021/03/09 09:25:36;;;;;;;24.47;14.27;;;;;;;5.44;73.64;98298.81;5071183;28;20215;-67
2021/03/09 09:28:04;;;;;;;21.07;13.33;;;;;;;5.42;75.07;98294.56;5072541;28;20222;-66
2021/03/09 09:30:39;;;;;;;23.60;14.50;;;;;;;5.48;75.10;98300.38;5072834;28;20260;-67
2021/03/09 09:33:05;;;;;;;19.17;13.13;;;;;;;5.55;74.19;98304.41;5072276;28;20211;-67
2021/03/09 09:35:33;;;;;;;19.33;12.80;;;;;;;5.65;75.05;98303.06;5072331;28;20210;-67
2021/03/09 09:38:01;;;;;;;22.00;14.23;;;;;;;5.76;73.76;98303.41;5072451;28;20215;-66
2021/03/09 09:40:30;;;;;;;20.93;14.23;;;;;;;5.83;72.53;98293.50;5072263;28;20231;-67
2021/03/09 09:43:03;;;;;;;19.60;13.93;;;;;;;5.81;73.38;98300.59;5072138;28;20216;-66
2021/03/09 09:45:30;;;;;;;20.17;13.23;;;;;;;5.88;73.34;98288.88;5072240;28;20216;-66
2021/03/09 09:47:58;;;;;;;20.93;14.23;;;;;;;6.03;73.14;98298.63;5069761;28;20227;-67
2021/03/09 09:50:26;;;;;;;20.57;13.57;;;;;;;6.18;73.26;98303.16;5069813;28;20293;-66
2021/03/09 09:52:56;;;;;;;19.50;13.23;;;;;;;6.33;72.25;98298.00;5069963;28;20210;-66
2021/03/09 09:55:24;;;;;;;22.47;14.17;;;;;;;6.50;70.61;98294.50;5071380;28;20215;-68
2021/03/09 09:57:51;;;;;;;20.07;13.77;;;;;;;6.50;69.50;98298.00;5075628;28;20222;-67
2021/03/09 10:00:21;;;;;;;19.67;14.10;;;;;;;6.61;69.58;98292.19;5072908;28;20223;-67
2021/03/09 10:03:06;;;;;;;18.63;13.23;;;;;;;6.80;69.14;98298.22;5075035;28;20211;-68
2021/03/09 10:05:32;;;;;;;21.00;13.70;;;;;;;6.87;68.80;98292.56;5074494;28;20215;-67
2021/03/09 10:07:58;;;;;;;17.23;13.17;;;;;;;7.01;69.37;98292.69;5075673;28;20608;-67
2021/03/09 10:10:24;;;;;;;20.70;13.37;;;;;;;7.14;69.00;98287.66;5075603;28;20247;-67
2021/03/09 10:12:50;;;;;;;18.20;13.07;;;;;;;7.21;68.18;98289.84;5075602;28;20277;-67
2021/03/09 10:15:18;;;;;;;19.23;13.30;;;;;;;7.32;67.03;98293.63;5075539;28;20252;-67
2021/03/09 10:17:46;;;;;;;19.80;13.20;;;;;;;7.22;66.38;98291.56;5074348;28;20212;-67
2021/03/09 10:20:21;;;;;;;16.73;12.87;;;;;;;7.27;66.71;98289.50;5074642;28;20233;-68
2021/03/09 10:22:47;;;;;;;17.33;12.40;;;;;;;7.41;67.00;98287.03;5075250;28;20230;-68
2021/03/09 10:25:15;;;;;;;19.43;13.20;;;;;;;7.52;64.75;98292.53;5075241;28;20216;-69
2021/03/09 10:27:42;;;;;;;17.93;12.00;;;;;;;7.64;64.06;98289.22;5075236;28;20258;-69
2021/03/09 10:30:09;;;;;;;19.37;11.77;;;;;;;7.67;63.75;98289.06;5075013;28;20674;-68
2021/03/09 10:32:49;;;;;;;14.80;9.90;;;;;;;7.77;63.10;98293.72;5074595;28;20208;-67
2021/03/09 10:35:16;;;;;;;17.43;11.90;;;;;;;7.81;62.68;98281.25;5074206;28;20221;-67
2021/03/09 10:37:42;;;;;;;16.60;12.00;;;;;;;7.87;62.17;98280.91;5072160;28;20223;-68
2021/03/09 10:40:12;;;;;;;17.30;12.43;;;;;;;7.97;62.22;98282.94;5073937;28;20232;-68
2021/03/09 10:42:39;;;;;;;18.20;12.37;;;;;;;8.02;62.06;98282.69;5074406;28;20213;-67
2021/03/09 10:45:20;;;;;;;17.33;12.53;;;;;;;8.06;62.21;98276.28;5073445;28;20211;-67
2021/03/09 10:47:51;;;;;;;16.93;11.77;;;;;;;8.01;60.74;98278.34;5073486;28;20214;-67
2021/03/09 10:50:19;;;;;;;14.70;11.03;;;;;;;8.07;60.36;98267.47;5074503;28;20221;-67
2021/03/09 10:52:45;;;;;;;16.30;11.73;;;;;;;8.11;62.02;98274.25;5074800;28;20262;-67
2021/03/09 10:55:12;;;;;;;15.40;11.37;;;;;;;8.10;61.74;98277.81;5074739;28;20215;-67
2021/03/09 10:57:38;;;;;;;14.40;10.37;;;;;;;8.04;60.86;98275.53;5074645;28;20214;-67
2021/03/09 11:00:06;;;;;;;17.87;10.63;;;;;;;8.06;60.04;98276.28;5074574;28;20242;-67
2021/03/09 11:02:32;;;;;;;15.30;11.53;;;;;;;8.12;60.35;98276.81;5074719;28;20298;-67
2021/03/09 11:04:59;;;;;;;16.10;11.03;;;;;;;8.10;60.67;98273.44;5074591;28;20569;-67
2021/03/09 11:07:25;;;;;;;19.00;11.03;;;;;;;8.18;60.98;98280.88;5074510;28;20232;-67
2021/03/09 11:09:51;;;;;;;16.83;11.60;;;;;;;8.19;58.91;98275.56;5073808;28;20217;-67
2021/03/09 11:12:17;;;;;;;14.90;11.50;;;;;;;8.15;59.96;98270.53;5072817;28;20306;-67
2021/03/09 11:14:43;;;;;;;14.77;10.93;;;;;;;8.17;59.03;98268.63;5073959;28;20585;-68
2021/03/09 11:17:09;;;;;;;15.03;9.43;;;;;;;8.14;56.94;98280.19;5074342;28;20217;-67
2021/03/09 11:19:35;;;;;;;12.63;8.57;;;;;;;8.09;58.49;98270.88;5074302;28;20210;-67
2021/03/09 11:22:02;;;;;;;12.03;8.93;;;;;;;8.09;56.34;98273.50;5074028;28;20232;-67
2021/03/09 11:24:29;;;;;;;13.50;9.43;;;;;;;8.13;56.15;98273.22;5074030;28;20225;-67
2021/03/09 11:26:59;;;;;;;13.03;8.40;;;;;;;8.22;56.39;98271.91;5074219;28;20210;-67